KLIC/LIC METAR and TAF weather

Enter ICAO airport designator
Station Type Date Time Source
KLIC METAR 2020/02/25 11:55 UTC NOAA

KLIC 251155Z AUTO 34033G45KT 9SM BKN031 BKN039 M07/M12 A3001 RMK AO2 PK WND 34047/1134 SNB42E52 SLP190 P0000 60000 70001 T10721122 11022 21078 $


Station Type Date Time Source
KLIC Decoded METAR 2020/02/25 11:55 UTC NOAA

LIMON MUNICIPAL AIRPORT, CO, United States (KLIC) 39-16N 103-40W 1630M
Feb 25, 2020 - 06:55 AM EST / 2020.02.25 1155 UTC
Wind: from the NNW (340 degrees) at 38 MPH (33 KT) gusting to 52 MPH (45 KT):0
Visibility: 9 mile(s):0
Sky conditions: mostly cloudy
Precipitation last hour: A trace
Temperature: 19.0 F (-7.2 C)
Windchill: -2 F (-19 C):1
Dew Point: 10.0 F (-12.2 C)
Relative Humidity: 67%
Pressure (altimeter): 30.01 in. Hg (1016 hPa)
ob: KLIC 251155Z AUTO 34033G45KT 9SM BKN031 BKN039 M07/M12 A3001 RMK AO2 PK WND 34047/1134 SNB42E52 SLP190 P0000 60000 70001 T10721122 11022 21078
cycle: 12

Station Type Date Time Source
KLIC TAF UTC NOAA

Error!

Example: see airport list